FIN7X LFMN-EFHK
Flight info
| Callsign | FIN7X |
|---|---|
| Flight time | 3h 6m |
| Altitude | 36000 |
| Route | BASIP DCT ANAKI DCT GEN DCT TAGIP DCT BRENO/N0446F370 DCT ALUTU DCT AGNAV DCT SUPIL DCT KILNU DCT UNRIG DCT BODLA DCT PENOR DCT ALAMI DCT OKEVU DCT EVADI Y370 DIVAM |
| Aircraft | A321/M-SDE3FGHIRWY/LB1 |
Departure
| Time | 2026-04-24 12:39 |
|---|---|
| Airport | Nice-Côte d'Azur Airport (LFMN) |
Arrival
| Time | 2026-04-24 15:45 |
|---|---|
| Airport | Helsinki Vantaa Airport (EFHK) |
| Time | Latitude | Longitude | Altitude | Speed | Heading |
|---|---|---|---|---|---|
| 2026-04-24 12:02 | 43.66170 | 7.20680 | 22 ft | 0 kts | 261° |
| 2026-04-24 12:28 | 43.66171 | 7.20688 | 22 ft | 2 kts | 261° |
| 2026-04-24 12:28 | 43.66175 | 7.20715 | 22 ft | 3 kts | 255° |
| 2026-04-24 12:28 | 43.66181 | 7.20741 | 22 ft | 3 kts | 244° |
| 2026-04-24 12:28 | 43.66191 | 7.20764 | 22 ft | 3 kts | 220° |
| 2026-04-24 12:29 | 43.66204 | 7.20775 | 22 ft | 2 kts | 176° |
| 2026-04-24 12:29 | 43.66208 | 7.20775 | 22 ft | 0 kts | 171° |
| 2026-04-24 12:32 | 43.66201 | 7.20776 | 22 ft | 3 kts | 171° |
| 2026-04-24 12:32 | 43.66157 | 7.20786 | 22 ft | 10 kts | 171° |
| 2026-04-24 12:32 | 43.66071 | 7.20805 | 22 ft | 15 kts | 171° |
| 2026-04-24 12:32 | 43.65965 | 7.20829 | 22 ft | 16 kts | 170° |
| 2026-04-24 12:33 | 43.65852 | 7.20856 | 22 ft | 17 kts | 171° |
| 2026-04-24 12:33 | 43.65794 | 7.20904 | 23 ft | 10 kts | 98° |
| 2026-04-24 12:33 | 43.65834 | 7.20982 | 24 ft | 11 kts | 48° |
| 2026-04-24 12:33 | 43.65890 | 7.21059 | 23 ft | 13 kts | 44° |
| 2026-04-24 12:34 | 43.65972 | 7.21170 | 23 ft | 20 kts | 44° |
| 2026-04-24 12:34 | 43.66082 | 7.21325 | 22 ft | 19 kts | 45° |
| 2026-04-24 12:34 | 43.66177 | 7.21455 | 23 ft | 20 kts | 44° |
| 2026-04-24 12:34 | 43.66275 | 7.21589 | 22 ft | 20 kts | 45° |
| 2026-04-24 12:35 | 43.66376 | 7.21728 | 22 ft | 21 kts | 45° |
| 2026-04-24 12:35 | 43.66479 | 7.21869 | 23 ft | 21 kts | 45° |
| 2026-04-24 12:35 | 43.66585 | 7.22016 | 22 ft | 22 kts | 45° |
| 2026-04-24 12:35 | 43.66694 | 7.22165 | 23 ft | 22 kts | 44° |
| 2026-04-24 12:36 | 43.66788 | 7.22294 | 23 ft | 10 kts | 46° |
| 2026-04-24 12:36 | 43.66820 | 7.22377 | 24 ft | 10 kts | 96° |
| 2026-04-24 12:36 | 43.66772 | 7.22454 | 22 ft | 12 kts | 135° |
| 2026-04-24 12:36 | 43.66713 | 7.22539 | 23 ft | 12 kts | 133° |
| 2026-04-24 12:37 | 43.66651 | 7.22623 | 22 ft | 13 kts | 136° |
| 2026-04-24 12:37 | 43.66608 | 7.22682 | 22 ft | 6 kts | 134° |
| 2026-04-24 12:37 | 43.66604 | 7.22687 | 24 ft | 1 kts | 134° |
| 2026-04-24 12:37 | 43.66594 | 7.22702 | 22 ft | 4 kts | 134° |
| 2026-04-24 12:38 | 43.66560 | 7.22750 | 22 ft | 10 kts | 134° |
| 2026-04-24 12:38 | 43.66525 | 7.22786 | 23 ft | 6 kts | 162° |
| 2026-04-24 12:38 | 43.66499 | 7.22760 | 23 ft | 5 kts | 227° |
| 2026-04-24 12:39 | 43.65764 | 7.21749 | 26 ft | 137 kts | 225° |
| 2026-04-24 12:39 | 43.64990 | 7.20683 | 265 ft | 164 kts | 223° |
| 2026-04-24 12:39 | 43.64195 | 7.19593 | 1005 ft | 160 kts | 223° |
| 2026-04-24 12:40 | 43.63381 | 7.18489 | 1476 ft | 173 kts | 223° |
| 2026-04-24 12:40 | 43.62483 | 7.17266 | 1769 ft | 188 kts | 223° |
| 2026-04-24 12:40 | 43.61489 | 7.15969 | 1964 ft | 207 kts | 216° |
| 2026-04-24 12:40 | 43.60063 | 7.15365 | 2116 ft | 231 kts | 176° |
| 2026-04-24 12:41 | 43.58476 | 7.16126 | 2493 ft | 252 kts | 154° |
| 2026-04-24 12:41 | 43.56918 | 7.17315 | 3195 ft | 259 kts | 149° |
| 2026-04-24 12:41 | 43.55581 | 7.19010 | 3806 ft | 269 kts | 123° |
| 2026-04-24 12:41 | 43.54919 | 7.21421 | 3974 ft | 272 kts | 104° |
| 2026-04-24 12:42 | 43.54476 | 7.23949 | 4018 ft | 271 kts | 102° |
| 2026-04-24 12:42 | 43.54525 | 7.26525 | 4013 ft | 272 kts | 73° |
| 2026-04-24 12:42 | 43.55299 | 7.28904 | 4004 ft | 274 kts | 58° |
| 2026-04-24 12:42 | 43.56259 | 7.31172 | 4018 ft | 274 kts | 62° |
| 2026-04-24 12:43 | 43.57157 | 7.33475 | 4250 ft | 265 kts | 62° |
| 2026-04-24 12:43 | 43.58032 | 7.35735 | 5014 ft | 270 kts | 62° |
| 2026-04-24 12:43 | 43.58922 | 7.38036 | 5773 ft | 274 kts | 62° |
| 2026-04-24 12:43 | 43.59822 | 7.40365 | 6543 ft | 276 kts | 62° |
| 2026-04-24 12:44 | 43.60745 | 7.42698 | 7315 ft | 278 kts | 60° |
| 2026-04-24 12:44 | 43.61733 | 7.45004 | 8070 ft | 281 kts | 58° |
| 2026-04-24 12:44 | 43.62760 | 7.47310 | 8821 ft | 283 kts | 58° |
| 2026-04-24 12:44 | 43.63798 | 7.49617 | 9582 ft | 284 kts | 58° |
| 2026-04-24 12:45 | 43.64841 | 7.51938 | 10347 ft | 284 kts | 58° |
| 2026-04-24 12:45 | 43.65879 | 7.54264 | 11070 ft | 287 kts | 57° |
| 2026-04-24 12:45 | 43.66951 | 7.56671 | 11465 ft | 302 kts | 57° |
| 2026-04-24 12:45 | 43.68075 | 7.59202 | 11900 ft | 315 kts | 57° |
| 2026-04-24 12:46 | 43.68843 | 7.60941 | 12077 ft | 327 kts | 57° |
| 2026-04-24 12:46 | 43.70056 | 7.63696 | 12380 ft | 341 kts | 57° |
| 2026-04-24 12:46 | 43.71297 | 7.66523 | 12981 ft | 347 kts | 57° |
| 2026-04-24 12:46 | 43.72552 | 7.69379 | 13633 ft | 349 kts | 58° |
| 2026-04-24 12:47 | 43.74469 | 7.73020 | 14472 ft | 352 kts | 48° |
| 2026-04-24 12:47 | 43.75547 | 7.74698 | 14902 ft | 354 kts | 48° |
| 2026-04-24 12:47 | 43.77188 | 7.77257 | 15535 ft | 357 kts | 48° |
| 2026-04-24 12:47 | 43.78840 | 7.79833 | 16147 ft | 360 kts | 49° |
| 2026-04-24 12:48 | 43.80506 | 7.82436 | 16768 ft | 362 kts | 49° |
| 2026-04-24 12:48 | 43.82176 | 7.85055 | 17373 ft | 364 kts | 49° |
| 2026-04-24 12:48 | 43.83857 | 7.87700 | 17961 ft | 367 kts | 50° |
| 2026-04-24 12:48 | 43.85544 | 7.90366 | 18531 ft | 370 kts | 50° |
| 2026-04-24 12:49 | 43.87250 | 7.93058 | 19096 ft | 373 kts | 50° |
| 2026-04-24 12:49 | 43.88938 | 7.95795 | 19652 ft | 374 kts | 54° |
| 2026-04-24 12:49 | 43.90332 | 7.98842 | 20202 ft | 376 kts | 61° |
| 2026-04-24 12:49 | 43.91629 | 8.02016 | 20718 ft | 379 kts | 61° |
| 2026-04-24 12:50 | 43.92931 | 8.05207 | 21272 ft | 381 kts | 61° |
| 2026-04-24 12:50 | 43.94240 | 8.08414 | 21786 ft | 384 kts | 61° |
| 2026-04-24 12:50 | 43.95557 | 8.11642 | 22294 ft | 386 kts | 61° |
| 2026-04-24 12:50 | 43.96882 | 8.14899 | 22780 ft | 388 kts | 61° |
| 2026-04-24 12:51 | 43.98211 | 8.18169 | 23246 ft | 390 kts | 61° |
| 2026-04-24 12:51 | 43.99552 | 8.21467 | 23682 ft | 393 kts | 61° |
| 2026-04-24 12:51 | 44.00899 | 8.24781 | 24119 ft | 395 kts | 61° |
| 2026-04-24 12:51 | 44.02251 | 8.28119 | 24540 ft | 397 kts | 61° |
| 2026-04-24 12:52 | 44.03608 | 8.31470 | 24946 ft | 400 kts | 61° |
| 2026-04-24 12:52 | 44.04976 | 8.34852 | 25349 ft | 402 kts | 61° |
| 2026-04-24 12:52 | 44.06346 | 8.38245 | 25748 ft | 404 kts | 61° |
| 2026-04-24 12:52 | 44.07720 | 8.41662 | 26125 ft | 406 kts | 61° |
| 2026-04-24 12:53 | 44.09100 | 8.45094 | 26491 ft | 408 kts | 61° |
| 2026-04-24 12:53 | 44.10490 | 8.48546 | 26869 ft | 410 kts | 61° |
| 2026-04-24 12:53 | 44.11888 | 8.52019 | 27204 ft | 412 kts | 61° |
| 2026-04-24 12:53 | 44.13295 | 8.55514 | 27569 ft | 414 kts | 61° |
| 2026-04-24 12:54 | 44.14703 | 8.59023 | 27927 ft | 416 kts | 61° |
| 2026-04-24 12:54 | 44.16116 | 8.62549 | 28250 ft | 418 kts | 61° |
| 2026-04-24 12:54 | 44.17532 | 8.66093 | 28569 ft | 420 kts | 61° |
| 2026-04-24 12:54 | 44.18956 | 8.69661 | 28879 ft | 422 kts | 61° |
| 2026-04-24 12:55 | 44.20528 | 8.73123 | 29170 ft | 424 kts | 53° |
| 2026-04-24 12:55 | 44.22441 | 8.76262 | 29454 ft | 426 kts | 49° |
| 2026-04-24 12:55 | 44.24409 | 8.79363 | 29770 ft | 428 kts | 49° |
| 2026-04-24 12:55 | 44.26380 | 8.82485 | 30071 ft | 429 kts | 49° |
| 2026-04-24 12:56 | 44.28345 | 8.85621 | 30365 ft | 431 kts | 49° |
| 2026-04-24 12:56 | 44.30319 | 8.88784 | 30658 ft | 433 kts | 49° |
| 2026-04-24 12:56 | 44.32304 | 8.91965 | 30934 ft | 435 kts | 49° |
| 2026-04-24 12:56 | 44.34291 | 8.95145 | 31301 ft | 434 kts | 49° |
| 2026-04-24 12:57 | 44.36275 | 8.98318 | 31695 ft | 433 kts | 49° |
| 2026-04-24 12:57 | 44.38252 | 9.01485 | 32068 ft | 432 kts | 49° |
| 2026-04-24 12:57 | 44.40225 | 9.04645 | 32425 ft | 431 kts | 49° |
| 2026-04-24 12:57 | 44.42249 | 9.07736 | 32736 ft | 432 kts | 44° |
| 2026-04-24 12:58 | 44.44557 | 9.10420 | 33070 ft | 432 kts | 37° |
| 2026-04-24 12:58 | 44.46971 | 9.12914 | 33398 ft | 431 kts | 37° |
| 2026-04-24 12:58 | 44.49387 | 9.15401 | 33734 ft | 430 kts | 37° |
| 2026-04-24 12:58 | 44.51798 | 9.17881 | 34073 ft | 430 kts | 37° |
| 2026-04-24 12:59 | 44.54201 | 9.20359 | 34421 ft | 428 kts | 38° |
| 2026-04-24 12:59 | 44.56594 | 9.22835 | 34752 ft | 427 kts | 38° |
| 2026-04-24 12:59 | 44.58978 | 9.25309 | 35049 ft | 426 kts | 38° |
| 2026-04-24 12:59 | 44.61359 | 9.27781 | 35334 ft | 426 kts | 38° |
| 2026-04-24 13:00 | 44.63739 | 9.30253 | 35641 ft | 425 kts | 37° |
| 2026-04-24 13:00 | 44.66113 | 9.32721 | 35931 ft | 425 kts | 38° |
| 2026-04-24 13:00 | 44.68488 | 9.35190 | 36090 ft | 425 kts | 38° |
| 2026-04-24 13:01 | 44.73217 | 9.40127 | 36108 ft | 422 kts | 38° |
| 2026-04-24 13:01 | 44.77951 | 9.45073 | 36105 ft | 421 kts | 38° |
| 2026-04-24 13:02 | 44.82628 | 9.49966 | 36093 ft | 421 kts | 38° |
| 2026-04-24 13:02 | 44.87335 | 9.54906 | 36091 ft | 422 kts | 38° |
| 2026-04-24 13:03 | 44.92043 | 9.59863 | 36091 ft | 421 kts | 38° |
| 2026-04-24 13:03 | 44.96743 | 9.64813 | 36083 ft | 422 kts | 38° |
| 2026-04-24 13:04 | 45.01447 | 9.69778 | 36082 ft | 422 kts | 38° |
| 2026-04-24 13:04 | 45.06148 | 9.74750 | 36091 ft | 422 kts | 38° |
| 2026-04-24 13:05 | 45.10847 | 9.79733 | 36088 ft | 422 kts | 38° |
| 2026-04-24 13:05 | 45.15570 | 9.84759 | 36094 ft | 423 kts | 38° |
| 2026-04-24 13:06 | 45.20276 | 9.89772 | 36100 ft | 423 kts | 38° |
| 2026-04-24 13:06 | 45.24956 | 9.94764 | 36108 ft | 424 kts | 38° |
| 2026-04-24 13:07 | 45.29670 | 9.99791 | 36117 ft | 424 kts | 38° |
| 2026-04-24 13:07 | 45.34379 | 10.04829 | 36118 ft | 423 kts | 38° |
| 2026-04-24 13:08 | 45.39076 | 10.09879 | 36121 ft | 423 kts | 38° |
| 2026-04-24 13:08 | 45.43760 | 10.14932 | 36123 ft | 422 kts | 38° |
| 2026-04-24 13:09 | 45.50782 | 10.22511 | 36128 ft | 422 kts | 38° |
| 2026-04-24 13:09 | 45.55460 | 10.27580 | 36128 ft | 423 kts | 38° |
| 2026-04-24 13:10 | 45.60147 | 10.32656 | 36129 ft | 423 kts | 38° |
| 2026-04-24 13:10 | 45.64833 | 10.37746 | 36118 ft | 423 kts | 38° |
| 2026-04-24 13:11 | 45.69511 | 10.42852 | 36122 ft | 423 kts | 38° |
| 2026-04-24 13:11 | 45.74194 | 10.47963 | 36121 ft | 423 kts | 38° |
| 2026-04-24 13:12 | 45.78875 | 10.53069 | 36128 ft | 423 kts | 38° |
| 2026-04-24 13:12 | 45.83551 | 10.58188 | 36147 ft | 423 kts | 38° |
| 2026-04-24 13:13 | 45.88221 | 10.63319 | 36155 ft | 422 kts | 38° |
| 2026-04-24 13:13 | 45.92919 | 10.68387 | 36162 ft | 422 kts | 33° |
| 2026-04-24 13:14 | 45.98189 | 10.72106 | 36171 ft | 423 kts | 25° |
| 2026-04-24 13:14 | 46.03562 | 10.75561 | 36183 ft | 423 kts | 25° |
| 2026-04-24 13:15 | 46.08932 | 10.79023 | 36202 ft | 423 kts | 25° |
| 2026-04-24 13:15 | 46.14306 | 10.82503 | 36212 ft | 423 kts | 25° |
| 2026-04-24 13:16 | 46.19671 | 10.85978 | 36218 ft | 423 kts | 25° |
| 2026-04-24 13:16 | 46.25035 | 10.89467 | 36219 ft | 423 kts | 25° |
| 2026-04-24 13:17 | 46.30396 | 10.92957 | 36212 ft | 422 kts | 25° |
| 2026-04-24 13:17 | 46.35752 | 10.96452 | 36199 ft | 422 kts | 25° |
| 2026-04-24 13:18 | 46.41096 | 10.99950 | 36161 ft | 421 kts | 25° |
| 2026-04-24 13:18 | 46.46434 | 11.03458 | 36124 ft | 421 kts | 25° |
| 2026-04-24 13:19 | 46.51770 | 11.06959 | 36111 ft | 421 kts | 25° |
| 2026-04-24 13:19 | 46.57111 | 11.10473 | 36102 ft | 422 kts | 25° |
| 2026-04-24 13:20 | 46.62460 | 11.14003 | 36097 ft | 422 kts | 25° |
| 2026-04-24 13:20 | 46.67808 | 11.17541 | 36094 ft | 422 kts | 25° |
| 2026-04-24 13:21 | 46.73160 | 11.21086 | 36096 ft | 422 kts | 25° |
| 2026-04-24 13:21 | 46.78537 | 11.24662 | 36099 ft | 422 kts | 25° |
| 2026-04-24 13:22 | 46.83842 | 11.28194 | 36105 ft | 422 kts | 25° |
| 2026-04-24 13:22 | 46.89182 | 11.31756 | 36111 ft | 422 kts | 25° |
| 2026-04-24 13:23 | 46.94519 | 11.35322 | 36112 ft | 422 kts | 25° |
| 2026-04-24 13:23 | 46.99936 | 11.38570 | 36107 ft | 421 kts | 18° |
| 2026-04-24 13:24 | 47.05533 | 11.41166 | 36120 ft | 422 kts | 18° |
| 2026-04-24 13:24 | 47.11128 | 11.43768 | 36119 ft | 422 kts | 18° |
| 2026-04-24 13:25 | 47.16719 | 11.46384 | 36355 ft | 422 kts | 18° |
| 2026-04-24 13:25 | 47.19513 | 11.47694 | 36602 ft | 422 kts | 18° |
| 2026-04-24 13:25 | 47.22312 | 11.49004 | 36872 ft | 422 kts | 18° |
| 2026-04-24 13:26 | 47.24205 | 11.49891 | 37060 ft | 421 kts | 18° |
| 2026-04-24 13:26 | 47.27890 | 11.51617 | 37111 ft | 418 kts | 18° |
| 2026-04-24 13:26 | 47.32504 | 11.53777 | 37119 ft | 414 kts | 18° |
| 2026-04-24 13:27 | 47.37987 | 11.56365 | 37120 ft | 414 kts | 18° |
| 2026-04-24 13:27 | 47.43468 | 11.58957 | 37116 ft | 413 kts | 18° |
| 2026-04-24 13:28 | 47.48947 | 11.61549 | 37118 ft | 413 kts | 18° |
| 2026-04-24 13:28 | 47.54414 | 11.64145 | 37125 ft | 413 kts | 18° |
| 2026-04-24 13:29 | 47.59885 | 11.66752 | 37130 ft | 413 kts | 18° |
| 2026-04-24 13:29 | 47.65357 | 11.69365 | 37138 ft | 413 kts | 18° |
| 2026-04-24 13:30 | 47.70838 | 11.71969 | 37147 ft | 414 kts | 17° |
| 2026-04-24 13:30 | 47.76320 | 11.74585 | 37153 ft | 414 kts | 17° |
| 2026-04-24 13:31 | 47.81801 | 11.77225 | 37160 ft | 414 kts | 17° |
| 2026-04-24 13:31 | 47.87273 | 11.79861 | 37162 ft | 413 kts | 17° |
| 2026-04-24 13:32 | 47.92741 | 11.82495 | 37165 ft | 413 kts | 17° |
| 2026-04-24 13:32 | 47.98212 | 11.85135 | 37157 ft | 413 kts | 17° |
| 2026-04-24 13:33 | 48.03682 | 11.87776 | 37161 ft | 413 kts | 17° |
| 2026-04-24 13:33 | 48.09144 | 11.90427 | 37160 ft | 412 kts | 17° |
| 2026-04-24 13:34 | 48.14600 | 11.93072 | 37156 ft | 412 kts | 17° |
| 2026-04-24 13:34 | 48.20052 | 11.95733 | 37159 ft | 412 kts | 17° |
| 2026-04-24 13:35 | 48.25508 | 11.98402 | 37159 ft | 412 kts | 18° |
| 2026-04-24 13:35 | 48.30964 | 12.01079 | 37155 ft | 412 kts | 17° |
| 2026-04-24 13:36 | 48.36419 | 12.03754 | 37155 ft | 412 kts | 17° |
| 2026-04-24 13:36 | 48.41876 | 12.06432 | 37152 ft | 413 kts | 17° |
| 2026-04-24 13:37 | 48.47338 | 12.09117 | 37152 ft | 413 kts | 17° |
| 2026-04-24 13:37 | 48.52808 | 12.11780 | 37155 ft | 413 kts | 17° |
| 2026-04-24 13:38 | 48.58301 | 12.14340 | 37155 ft | 413 kts | 16° |
| 2026-04-24 13:38 | 48.63795 | 12.16885 | 37155 ft | 413 kts | 16° |
| 2026-04-24 13:39 | 48.69284 | 12.19456 | 37154 ft | 413 kts | 16° |
| 2026-04-24 13:39 | 48.74763 | 12.22052 | 37156 ft | 413 kts | 16° |
| 2026-04-24 13:40 | 48.80251 | 12.24649 | 37156 ft | 413 kts | 16° |
| 2026-04-24 13:40 | 48.85742 | 12.27242 | 37158 ft | 413 kts | 16° |
| 2026-04-24 13:41 | 48.91223 | 12.29842 | 37157 ft | 413 kts | 16° |
| 2026-04-24 13:41 | 48.96705 | 12.32453 | 37154 ft | 413 kts | 16° |
| 2026-04-24 13:42 | 49.02185 | 12.35065 | 37154 ft | 412 kts | 16° |
| 2026-04-24 13:42 | 49.07660 | 12.37682 | 37153 ft | 413 kts | 16° |
| 2026-04-24 13:43 | 49.13140 | 12.40319 | 37154 ft | 413 kts | 16° |
| 2026-04-24 13:43 | 49.18627 | 12.42956 | 37154 ft | 413 kts | 15° |
| 2026-04-24 13:44 | 49.24121 | 12.45595 | 37151 ft | 414 kts | 15° |
| 2026-04-24 13:44 | 49.29616 | 12.48246 | 37149 ft | 414 kts | 15° |
| 2026-04-24 13:45 | 49.35115 | 12.50900 | 37149 ft | 415 kts | 15° |
| 2026-04-24 13:45 | 49.40615 | 12.53560 | 37149 ft | 414 kts | 15° |
| 2026-04-24 13:46 | 49.46110 | 12.56238 | 37145 ft | 414 kts | 15° |
| 2026-04-24 13:46 | 49.51605 | 12.58926 | 37142 ft | 414 kts | 15° |
| 2026-04-24 13:47 | 49.57122 | 12.61482 | 37140 ft | 413 kts | 9° |
| 2026-04-24 13:47 | 49.62743 | 12.62892 | 37139 ft | 412 kts | 7° |
| 2026-04-24 13:48 | 49.68446 | 12.64284 | 37137 ft | 413 kts | 7° |
| 2026-04-24 13:48 | 49.74118 | 12.65669 | 37135 ft | 412 kts | 7° |
| 2026-04-24 13:49 | 49.79789 | 12.67060 | 37134 ft | 413 kts | 7° |
| 2026-04-24 13:49 | 49.85460 | 12.68454 | 37132 ft | 413 kts | 7° |
| 2026-04-24 13:50 | 49.91135 | 12.69846 | 37135 ft | 413 kts | 7° |
| 2026-04-24 13:50 | 49.96808 | 12.71245 | 37135 ft | 413 kts | 7° |
| 2026-04-24 13:51 | 50.02481 | 12.72644 | 37140 ft | 413 kts | 7° |
| 2026-04-24 13:51 | 50.08165 | 12.74056 | 37138 ft | 414 kts | 6° |
| 2026-04-24 13:52 | 50.13813 | 12.75460 | 37139 ft | 414 kts | 6° |
| 2026-04-24 13:52 | 50.19502 | 12.76884 | 37137 ft | 414 kts | 6° |
| 2026-04-24 13:53 | 50.25181 | 12.78303 | 37131 ft | 413 kts | 6° |
| 2026-04-24 13:53 | 50.30862 | 12.79719 | 37131 ft | 413 kts | 6° |
| 2026-04-24 13:54 | 50.36507 | 12.81446 | 37136 ft | 416 kts | 15° |
| 2026-04-24 13:54 | 50.41718 | 12.85498 | 37138 ft | 421 kts | 27° |
| 2026-04-24 13:55 | 50.46750 | 12.90202 | 37142 ft | 420 kts | 23° |
| 2026-04-24 13:55 | 50.52187 | 12.93297 | 37147 ft | 415 kts | 13° |
| 2026-04-24 13:56 | 50.57720 | 12.95921 | 37155 ft | 415 kts | 13° |
| 2026-04-24 13:56 | 50.63251 | 12.98564 | 37163 ft | 415 kts | 13° |
| 2026-04-24 13:57 | 50.68781 | 13.01217 | 37168 ft | 415 kts | 13° |
| 2026-04-24 13:57 | 50.74307 | 13.03865 | 37176 ft | 415 kts | 13° |
| 2026-04-24 13:58 | 50.79825 | 13.06523 | 37177 ft | 415 kts | 13° |
| 2026-04-24 13:58 | 50.85348 | 13.09187 | 37170 ft | 414 kts | 13° |
| 2026-04-24 13:59 | 50.90861 | 13.11852 | 37177 ft | 414 kts | 13° |
| 2026-04-24 13:59 | 50.96366 | 13.14521 | 37170 ft | 414 kts | 13° |
| 2026-04-24 14:00 | 51.01874 | 13.17202 | 37173 ft | 414 kts | 13° |
| 2026-04-24 14:00 | 51.07382 | 13.19884 | 37174 ft | 414 kts | 13° |
| 2026-04-24 14:01 | 51.12887 | 13.22570 | 37172 ft | 414 kts | 13° |
| 2026-04-24 14:01 | 51.18400 | 13.25259 | 37174 ft | 414 kts | 13° |
| 2026-04-24 14:02 | 51.23914 | 13.27960 | 37169 ft | 414 kts | 13° |
| 2026-04-24 14:02 | 51.29423 | 13.30680 | 37174 ft | 414 kts | 13° |
| 2026-04-24 14:03 | 51.34934 | 13.33398 | 37171 ft | 415 kts | 13° |
| 2026-04-24 14:03 | 51.40448 | 13.36118 | 37178 ft | 415 kts | 13° |
| 2026-04-24 14:04 | 51.45965 | 13.38850 | 37172 ft | 415 kts | 13° |
| 2026-04-24 14:04 | 51.51480 | 13.41599 | 37169 ft | 415 kts | 13° |
| 2026-04-24 14:05 | 51.56986 | 13.44347 | 37167 ft | 415 kts | 12° |
| 2026-04-24 14:05 | 51.62496 | 13.47093 | 37166 ft | 414 kts | 12° |
| 2026-04-24 14:06 | 51.68006 | 13.49850 | 37158 ft | 415 kts | 12° |
| 2026-04-24 14:06 | 51.73509 | 13.52617 | 37163 ft | 414 kts | 12° |
| 2026-04-24 14:07 | 51.79017 | 13.55385 | 37159 ft | 415 kts | 12° |
| 2026-04-24 14:07 | 51.83594 | 13.57692 | 37157 ft | 414 kts | 12° |
| 2026-04-24 14:08 | 51.89090 | 13.60514 | 37158 ft | 415 kts | 13° |
| 2026-04-24 14:08 | 51.94554 | 13.63582 | 37153 ft | 415 kts | 14° |
| 2026-04-24 14:09 | 52.00000 | 13.66723 | 37150 ft | 416 kts | 14° |
| 2026-04-24 14:09 | 52.05453 | 13.69831 | 37149 ft | 415 kts | 14° |
| 2026-04-24 14:10 | 52.10909 | 13.72912 | 37142 ft | 415 kts | 14° |
| 2026-04-24 14:10 | 52.16363 | 13.75997 | 37139 ft | 415 kts | 14° |
| 2026-04-24 14:11 | 52.21823 | 13.79112 | 37135 ft | 416 kts | 14° |
| 2026-04-24 14:12 | 52.30000 | 13.83796 | 37129 ft | 415 kts | 14° |
| 2026-04-24 14:12 | 52.35454 | 13.86921 | 37126 ft | 415 kts | 14° |
| 2026-04-24 14:13 | 52.40905 | 13.90045 | 37125 ft | 416 kts | 14° |
| 2026-04-24 14:13 | 52.46365 | 13.93189 | 37129 ft | 416 kts | 14° |
| 2026-04-24 14:14 | 52.51827 | 13.96349 | 37128 ft | 416 kts | 14° |
| 2026-04-24 14:14 | 52.60013 | 14.01100 | 37123 ft | 416 kts | 14° |
| 2026-04-24 14:15 | 52.65468 | 14.04269 | 37120 ft | 416 kts | 14° |
| 2026-04-24 14:15 | 52.70920 | 14.07444 | 37120 ft | 415 kts | 13° |
| 2026-04-24 14:16 | 52.76366 | 14.10626 | 37116 ft | 415 kts | 13° |
| 2026-04-24 14:17 | 52.84546 | 14.15417 | 37107 ft | 416 kts | 13° |
| 2026-04-24 14:17 | 52.92729 | 14.20243 | 37100 ft | 416 kts | 13° |
| 2026-04-24 14:18 | 52.98186 | 14.23475 | 37097 ft | 416 kts | 13° |
| 2026-04-24 14:18 | 53.03645 | 14.26712 | 37106 ft | 417 kts | 13° |
| 2026-04-24 14:19 | 53.09098 | 14.29955 | 37097 ft | 417 kts | 13° |
| 2026-04-24 14:19 | 53.14561 | 14.33193 | 37081 ft | 416 kts | 13° |
| 2026-04-24 14:20 | 53.20012 | 14.36439 | 37076 ft | 416 kts | 13° |
| 2026-04-24 14:20 | 53.25460 | 14.39704 | 37076 ft | 416 kts | 13° |
| 2026-04-24 14:21 | 53.30644 | 14.44304 | 37071 ft | 428 kts | 26° |
| 2026-04-24 14:21 | 53.35633 | 14.49764 | 37065 ft | 429 kts | 26° |
| 2026-04-24 14:22 | 53.40635 | 14.55212 | 37062 ft | 429 kts | 25° |
| 2026-04-24 14:23 | 53.48132 | 14.63416 | 37063 ft | 429 kts | 26° |
| 2026-04-24 14:23 | 53.53135 | 14.68912 | 37066 ft | 430 kts | 26° |
| 2026-04-24 14:24 | 53.58138 | 14.74423 | 37068 ft | 430 kts | 26° |
| 2026-04-24 14:24 | 53.63144 | 14.79960 | 37071 ft | 430 kts | 26° |
| 2026-04-24 14:25 | 53.68135 | 14.85514 | 37072 ft | 430 kts | 26° |
| 2026-04-24 14:25 | 53.73132 | 14.91076 | 37071 ft | 430 kts | 26° |
| 2026-04-24 14:26 | 53.78122 | 14.96645 | 37072 ft | 430 kts | 26° |
| 2026-04-24 14:26 | 53.83111 | 15.02215 | 37071 ft | 429 kts | 26° |
| 2026-04-24 14:27 | 53.88086 | 15.07790 | 37071 ft | 429 kts | 26° |
| 2026-04-24 14:27 | 53.93053 | 15.13394 | 37069 ft | 429 kts | 26° |
| 2026-04-24 14:28 | 53.98021 | 15.19013 | 37070 ft | 429 kts | 26° |
| 2026-04-24 14:28 | 54.02995 | 15.24629 | 37068 ft | 429 kts | 26° |
| 2026-04-24 14:29 | 54.07975 | 15.30269 | 37060 ft | 431 kts | 26° |
| 2026-04-24 14:29 | 54.12961 | 15.35955 | 37060 ft | 431 kts | 26° |
| 2026-04-24 14:30 | 54.17103 | 15.40694 | 37062 ft | 431 kts | 26° |
| 2026-04-24 14:30 | 54.22935 | 15.47353 | 37062 ft | 431 kts | 26° |
| 2026-04-24 14:31 | 54.27911 | 15.53067 | 37062 ft | 431 kts | 26° |
| 2026-04-24 14:31 | 54.32883 | 15.58804 | 37062 ft | 431 kts | 26° |
| 2026-04-24 14:32 | 54.37848 | 15.64558 | 37059 ft | 430 kts | 26° |
| 2026-04-24 14:32 | 54.42812 | 15.70308 | 37056 ft | 430 kts | 26° |
| 2026-04-24 14:33 | 54.47776 | 15.76068 | 37058 ft | 431 kts | 26° |
| 2026-04-24 14:33 | 54.52744 | 15.81833 | 37052 ft | 431 kts | 26° |
| 2026-04-24 14:34 | 54.57705 | 15.87633 | 37057 ft | 431 kts | 26° |
| 2026-04-24 14:34 | 54.62665 | 15.93465 | 37054 ft | 432 kts | 27° |
| 2026-04-24 14:35 | 54.67629 | 15.99309 | 37052 ft | 432 kts | 27° |
| 2026-04-24 14:35 | 54.72587 | 16.05168 | 37056 ft | 432 kts | 27° |
| 2026-04-24 14:36 | 54.77541 | 16.11030 | 37047 ft | 431 kts | 27° |
| 2026-04-24 14:36 | 54.82487 | 16.16901 | 37049 ft | 431 kts | 27° |
| 2026-04-24 14:37 | 54.87427 | 16.22777 | 37047 ft | 431 kts | 27° |
| 2026-04-24 14:37 | 54.92369 | 16.28671 | 37037 ft | 431 kts | 27° |
| 2026-04-24 14:38 | 54.97300 | 16.34576 | 37032 ft | 430 kts | 27° |
| 2026-04-24 14:38 | 55.02227 | 16.40506 | 37034 ft | 431 kts | 28° |
| 2026-04-24 14:39 | 55.07153 | 16.46454 | 37036 ft | 431 kts | 28° |
| 2026-04-24 14:39 | 55.12089 | 16.52413 | 37024 ft | 431 kts | 28° |
| 2026-04-24 14:40 | 55.17025 | 16.58391 | 37023 ft | 432 kts | 28° |
| 2026-04-24 14:40 | 55.21956 | 16.64387 | 37022 ft | 432 kts | 28° |
| 2026-04-24 14:41 | 55.26890 | 16.70397 | 37024 ft | 431 kts | 28° |
| 2026-04-24 14:41 | 55.31805 | 16.76423 | 37024 ft | 431 kts | 28° |
| 2026-04-24 14:42 | 55.35886 | 16.81446 | 37019 ft | 431 kts | 28° |
| 2026-04-24 14:42 | 55.41630 | 16.88510 | 37014 ft | 431 kts | 28° |
| 2026-04-24 14:43 | 55.46540 | 16.94562 | 37012 ft | 431 kts | 28° |
| 2026-04-24 14:43 | 55.51445 | 17.00641 | 37009 ft | 431 kts | 28° |
| 2026-04-24 14:44 | 55.56348 | 17.06746 | 37007 ft | 431 kts | 29° |
| 2026-04-24 14:44 | 55.61250 | 17.12869 | 37007 ft | 431 kts | 29° |
| 2026-04-24 14:45 | 55.66287 | 17.18531 | 37010 ft | 426 kts | 23° |
| 2026-04-24 14:45 | 55.71467 | 17.23635 | 37010 ft | 426 kts | 23° |
| 2026-04-24 14:46 | 55.76646 | 17.28789 | 37011 ft | 427 kts | 23° |
| 2026-04-24 14:46 | 55.81820 | 17.33962 | 37010 ft | 427 kts | 24° |
| 2026-04-24 14:47 | 55.86116 | 17.38272 | 37010 ft | 426 kts | 23° |
| 2026-04-24 14:47 | 55.92159 | 17.44323 | 37008 ft | 426 kts | 23° |
| 2026-04-24 14:48 | 55.97326 | 17.49518 | 37005 ft | 426 kts | 24° |
| 2026-04-24 14:48 | 56.01614 | 17.53851 | 37001 ft | 426 kts | 24° |
| 2026-04-24 14:49 | 56.06768 | 17.59070 | 36998 ft | 426 kts | 24° |
| 2026-04-24 14:49 | 56.11928 | 17.64314 | 36997 ft | 426 kts | 24° |
| 2026-04-24 14:50 | 56.17086 | 17.69565 | 36996 ft | 427 kts | 24° |
| 2026-04-24 14:50 | 56.22251 | 17.74832 | 36998 ft | 427 kts | 24° |
| 2026-04-24 14:51 | 56.27406 | 17.80122 | 36998 ft | 427 kts | 24° |
| 2026-04-24 14:51 | 56.32559 | 17.85427 | 36997 ft | 426 kts | 24° |
| 2026-04-24 14:52 | 56.37711 | 17.90739 | 36994 ft | 427 kts | 24° |
| 2026-04-24 14:52 | 56.42865 | 17.96065 | 36993 ft | 427 kts | 24° |
| 2026-04-24 14:53 | 56.48020 | 18.01412 | 36993 ft | 427 kts | 24° |
| 2026-04-24 14:53 | 56.53165 | 18.06782 | 36992 ft | 427 kts | 25° |
| 2026-04-24 14:54 | 56.58311 | 18.12160 | 36991 ft | 427 kts | 25° |
| 2026-04-24 14:54 | 56.63458 | 18.17553 | 36991 ft | 427 kts | 25° |
| 2026-04-24 14:55 | 56.68604 | 18.22961 | 36991 ft | 427 kts | 25° |
| 2026-04-24 14:55 | 56.73745 | 18.28385 | 36989 ft | 428 kts | 25° |
| 2026-04-24 14:56 | 56.78903 | 18.33833 | 36988 ft | 428 kts | 25° |
| 2026-04-24 14:56 | 56.84054 | 18.39293 | 36988 ft | 428 kts | 25° |
| 2026-04-24 14:57 | 56.89208 | 18.44779 | 36990 ft | 429 kts | 25° |
| 2026-04-24 14:57 | 56.94361 | 18.50292 | 36986 ft | 429 kts | 25° |
| 2026-04-24 14:58 | 56.99513 | 18.55817 | 36984 ft | 429 kts | 25° |
| 2026-04-24 14:58 | 57.04672 | 18.61359 | 36974 ft | 430 kts | 25° |
| 2026-04-24 14:59 | 57.09827 | 18.66922 | 36969 ft | 430 kts | 26° |
| 2026-04-24 14:59 | 57.14979 | 18.72496 | 36969 ft | 430 kts | 26° |
| 2026-04-24 15:00 | 57.20133 | 18.78099 | 36965 ft | 430 kts | 26° |
| 2026-04-24 15:00 | 57.25292 | 18.83706 | 36967 ft | 430 kts | 26° |
| 2026-04-24 15:01 | 57.30449 | 18.89341 | 36963 ft | 430 kts | 26° |
| 2026-04-24 15:01 | 57.35608 | 18.94996 | 36962 ft | 431 kts | 26° |
| 2026-04-24 15:02 | 57.40762 | 19.00665 | 36962 ft | 431 kts | 26° |
| 2026-04-24 15:02 | 57.45913 | 19.06352 | 36964 ft | 431 kts | 26° |
| 2026-04-24 15:03 | 57.51062 | 19.12060 | 36963 ft | 431 kts | 26° |
| 2026-04-24 15:03 | 57.56213 | 19.17786 | 36966 ft | 431 kts | 26° |
| 2026-04-24 15:04 | 57.61365 | 19.23528 | 36967 ft | 431 kts | 26° |
| 2026-04-24 15:04 | 57.66513 | 19.29286 | 36971 ft | 432 kts | 26° |
| 2026-04-24 15:05 | 57.71658 | 19.35070 | 36971 ft | 431 kts | 27° |
| 2026-04-24 15:05 | 57.76803 | 19.40859 | 36965 ft | 431 kts | 27° |
| 2026-04-24 15:06 | 57.81939 | 19.46663 | 36961 ft | 431 kts | 27° |
| 2026-04-24 15:06 | 57.87071 | 19.52477 | 36959 ft | 431 kts | 27° |
| 2026-04-24 15:07 | 57.92198 | 19.58301 | 36959 ft | 431 kts | 27° |
| 2026-04-24 15:07 | 57.97328 | 19.64149 | 36957 ft | 431 kts | 27° |
| 2026-04-24 15:08 | 58.02443 | 19.70016 | 36957 ft | 430 kts | 27° |
| 2026-04-24 15:08 | 58.07559 | 19.75905 | 36954 ft | 431 kts | 27° |
| 2026-04-24 15:09 | 58.12669 | 19.81794 | 36951 ft | 430 kts | 27° |
| 2026-04-24 15:09 | 58.17781 | 19.87689 | 36946 ft | 430 kts | 27° |
| 2026-04-24 15:10 | 58.22884 | 19.93608 | 36941 ft | 430 kts | 27° |
| 2026-04-24 15:10 | 58.27982 | 19.99551 | 36938 ft | 430 kts | 27° |
| 2026-04-24 15:11 | 58.33074 | 20.05523 | 36938 ft | 430 kts | 27° |
| 2026-04-24 15:11 | 58.38155 | 20.11515 | 36937 ft | 429 kts | 27° |
| 2026-04-24 15:12 | 58.43244 | 20.17485 | 36932 ft | 429 kts | 27° |
| 2026-04-24 15:12 | 58.50870 | 20.26468 | 36909 ft | 430 kts | 27° |
| 2026-04-24 15:13 | 58.55942 | 20.32503 | 36931 ft | 429 kts | 27° |
| 2026-04-24 15:13 | 58.61007 | 20.38545 | 36921 ft | 429 kts | 28° |
| 2026-04-24 15:14 | 58.66088 | 20.44606 | 36885 ft | 431 kts | 28° |
| 2026-04-24 15:14 | 58.71190 | 20.50712 | 36881 ft | 433 kts | 28° |
| 2026-04-24 15:15 | 58.76320 | 20.56876 | 36881 ft | 435 kts | 28° |
| 2026-04-24 15:15 | 58.81449 | 20.63076 | 36892 ft | 436 kts | 28° |
| 2026-04-24 15:16 | 58.86583 | 20.69309 | 36889 ft | 436 kts | 28° |
| 2026-04-24 15:16 | 58.91712 | 20.75579 | 36904 ft | 436 kts | 28° |
| 2026-04-24 15:17 | 58.96846 | 20.81854 | 36908 ft | 436 kts | 28° |
| 2026-04-24 15:17 | 59.01962 | 20.88197 | 36904 ft | 438 kts | 33° |
| 2026-04-24 15:18 | 59.06300 | 20.96575 | 36911 ft | 446 kts | 51° |
| 2026-04-24 15:18 | 59.09593 | 21.06855 | 36900 ft | 448 kts | 55° |
| 2026-04-24 15:19 | 59.12844 | 21.17198 | 36900 ft | 448 kts | 55° |
| 2026-04-24 15:19 | 59.16084 | 21.27549 | 36900 ft | 447 kts | 55° |
| 2026-04-24 15:20 | 59.19313 | 21.37924 | 36895 ft | 447 kts | 55° |
| 2026-04-24 15:20 | 59.22529 | 21.48295 | 36595 ft | 446 kts | 55° |
| 2026-04-24 15:21 | 59.24129 | 21.53484 | 36031 ft | 446 kts | 55° |
| 2026-04-24 15:21 | 59.25730 | 21.58695 | 35345 ft | 449 kts | 55° |
| 2026-04-24 15:21 | 59.27341 | 21.63947 | 34639 ft | 452 kts | 55° |
| 2026-04-24 15:21 | 59.28964 | 21.69246 | 33889 ft | 455 kts | 55° |
| 2026-04-24 15:22 | 59.30585 | 21.74549 | 33424 ft | 452 kts | 55° |
| 2026-04-24 15:22 | 59.32185 | 21.79808 | 32921 ft | 448 kts | 55° |
| 2026-04-24 15:22 | 59.33774 | 21.85042 | 32415 ft | 445 kts | 55° |
| 2026-04-24 15:23 | 59.36917 | 21.95411 | 31404 ft | 439 kts | 55° |
| 2026-04-24 15:23 | 59.40008 | 22.05638 | 30408 ft | 432 kts | 54° |
| 2026-04-24 15:23 | 59.41531 | 22.10692 | 29917 ft | 429 kts | 54° |
| 2026-04-24 15:24 | 59.46026 | 22.25648 | 28483 ft | 418 kts | 54° |
| 2026-04-24 15:25 | 59.48452 | 22.33795 | 27714 ft | 412 kts | 54° |
| 2026-04-24 15:25 | 59.51795 | 22.45090 | 26673 ft | 404 kts | 54° |
| 2026-04-24 15:26 | 59.55998 | 22.59298 | 25424 ft | 396 kts | 53° |
| 2026-04-24 15:27 | 59.60095 | 22.73292 | 24186 ft | 388 kts | 53° |
| 2026-04-24 15:27 | 59.64098 | 22.87012 | 22918 ft | 380 kts | 53° |
| 2026-04-24 15:28 | 59.69277 | 23.04910 | 21155 ft | 369 kts | 53° |
| 2026-04-24 15:29 | 59.71379 | 23.12194 | 20430 ft | 364 kts | 53° |
| 2026-04-24 15:30 | 59.75116 | 23.25176 | 19109 ft | 356 kts | 52° |
| 2026-04-24 15:31 | 59.79894 | 23.41906 | 17400 ft | 343 kts | 53° |
| 2026-04-24 15:32 | 59.84507 | 23.58224 | 15713 ft | 331 kts | 53° |
| 2026-04-24 15:33 | 59.88926 | 23.73938 | 14077 ft | 320 kts | 53° |
| 2026-04-24 15:33 | 59.91779 | 23.85454 | 13076 ft | 306 kts | 65° |
| 2026-04-24 15:34 | 59.93054 | 23.93476 | 12436 ft | 304 kts | 64° |
| 2026-04-24 15:35 | 59.94969 | 24.05486 | 11084 ft | 299 kts | 66° |
| 2026-04-24 15:35 | 59.96202 | 24.13299 | 10206 ft | 296 kts | 68° |
| 2026-04-24 15:35 | 59.96813 | 24.17207 | 9765 ft | 293 kts | 68° |
| 2026-04-24 15:36 | 59.97425 | 24.21127 | 9306 ft | 290 kts | 69° |
| 2026-04-24 15:36 | 59.98594 | 24.28584 | 8145 ft | 273 kts | 68° |
| 2026-04-24 15:36 | 59.99446 | 24.31865 | 7571 ft | 260 kts | 46° |
| 2026-04-24 15:37 | 60.00771 | 24.34175 | 6994 ft | 248 kts | 31° |
| 2026-04-24 15:37 | 60.02179 | 24.36110 | 6441 ft | 243 kts | 32° |
| 2026-04-24 15:37 | 60.03561 | 24.38019 | 5937 ft | 240 kts | 31° |
| 2026-04-24 15:37 | 60.04921 | 24.39900 | 5442 ft | 236 kts | 32° |
| 2026-04-24 15:38 | 60.06241 | 24.41733 | 5013 ft | 226 kts | 32° |
| 2026-04-24 15:38 | 60.07545 | 24.43544 | 4593 ft | 230 kts | 32° |
| 2026-04-24 15:38 | 60.08823 | 24.45328 | 4352 ft | 218 kts | 32° |
| 2026-04-24 15:38 | 60.10048 | 24.47041 | 4102 ft | 213 kts | 32° |
| 2026-04-24 15:39 | 60.11261 | 24.48735 | 3869 ft | 211 kts | 32° |
| 2026-04-24 15:39 | 60.12465 | 24.50411 | 3628 ft | 211 kts | 32° |
| 2026-04-24 15:39 | 60.13656 | 24.52111 | 3380 ft | 210 kts | 37° |
| 2026-04-24 15:39 | 60.14696 | 24.54172 | 3135 ft | 211 kts | 45° |
| 2026-04-24 15:40 | 60.15683 | 24.56338 | 2900 ft | 210 kts | 45° |
| 2026-04-24 15:40 | 60.16663 | 24.58487 | 2664 ft | 207 kts | 45° |
| 2026-04-24 15:40 | 60.17629 | 24.60587 | 2413 ft | 203 kts | 44° |
| 2026-04-24 15:40 | 60.18562 | 24.62615 | 2312 ft | 192 kts | 44° |
| 2026-04-24 15:41 | 60.19453 | 24.64546 | 2340 ft | 187 kts | 44° |
| 2026-04-24 15:41 | 60.20333 | 24.66456 | 2326 ft | 185 kts | 43° |
| 2026-04-24 15:41 | 60.21207 | 24.68352 | 2308 ft | 182 kts | 43° |
| 2026-04-24 15:41 | 60.22032 | 24.70152 | 2321 ft | 170 kts | 43° |
| 2026-04-24 15:42 | 60.22818 | 24.71862 | 2324 ft | 162 kts | 43° |
| 2026-04-24 15:42 | 60.23572 | 24.73503 | 2294 ft | 155 kts | 43° |
| 2026-04-24 15:42 | 60.24281 | 24.75049 | 2145 ft | 147 kts | 43° |
| 2026-04-24 15:42 | 60.24968 | 24.76547 | 1976 ft | 145 kts | 42° |
| 2026-04-24 15:43 | 60.25648 | 24.78031 | 1786 ft | 144 kts | 43° |
| 2026-04-24 15:43 | 60.26325 | 24.79507 | 1615 ft | 144 kts | 42° |
| 2026-04-24 15:43 | 60.27004 | 24.80990 | 1413 ft | 144 kts | 42° |
| 2026-04-24 15:43 | 60.27685 | 24.82478 | 1217 ft | 144 kts | 41° |
| 2026-04-24 15:44 | 60.28363 | 24.83963 | 1009 ft | 144 kts | 41° |
| 2026-04-24 15:44 | 60.29037 | 24.85441 | 821 ft | 144 kts | 42° |
| 2026-04-24 15:44 | 60.29712 | 24.86918 | 620 ft | 143 kts | 43° |
| 2026-04-24 15:44 | 60.30388 | 24.88399 | 453 ft | 144 kts | 44° |
| 2026-04-24 15:45 | 60.31068 | 24.89887 | 260 ft | 144 kts | 44° |
| 2026-04-24 15:45 | 60.31729 | 24.91337 | 150 ft | 128 kts | 46° |
| 2026-04-24 15:45 | 60.32224 | 24.92430 | 166 ft | 81 kts | 47° |
| 2026-04-24 15:45 | 60.32413 | 24.92886 | 173 ft | 21 kts | 67° |
| 2026-04-24 15:46 | 60.32453 | 24.93172 | 175 ft | 21 kts | 76° |
| 2026-04-24 15:46 | 60.32483 | 24.93437 | 174 ft | 19 kts | 77° |
| 2026-04-24 15:46 | 60.32507 | 24.93665 | 172 ft | 13 kts | 78° |
| 2026-04-24 15:46 | 60.32529 | 24.93860 | 171 ft | 16 kts | 76° |
| 2026-04-24 15:47 | 60.32595 | 24.94045 | 171 ft | 17 kts | 47° |
| 2026-04-24 15:47 | 60.32677 | 24.94224 | 172 ft | 18 kts | 47° |
| 2026-04-24 15:47 | 60.32763 | 24.94411 | 173 ft | 19 kts | 49° |
| 2026-04-24 15:47 | 60.32853 | 24.94610 | 174 ft | 15 kts | 47° |
| 2026-04-24 15:48 | 60.32904 | 24.94723 | 175 ft | 11 kts | 47° |
| 2026-04-24 15:48 | 60.32923 | 24.94857 | 177 ft | 11 kts | 116° |
| 2026-04-24 15:48 | 60.32844 | 24.94947 | 175 ft | 14 kts | 163° |
| 2026-04-24 15:48 | 60.32750 | 24.95005 | 178 ft | 14 kts | 163° |
| 2026-04-24 15:49 | 60.32657 | 24.95066 | 180 ft | 14 kts | 161° |
| 2026-04-24 15:49 | 60.32558 | 24.95132 | 180 ft | 16 kts | 162° |
| 2026-04-24 15:49 | 60.32445 | 24.95206 | 179 ft | 19 kts | 162° |
| 2026-04-24 15:49 | 60.32316 | 24.95310 | 177 ft | 21 kts | 144° |
| 2026-04-24 15:50 | 60.32238 | 24.95457 | 175 ft | 15 kts | 137° |
| 2026-04-24 15:50 | 60.32150 | 24.95617 | 173 ft | 18 kts | 139° |
| 2026-04-24 15:50 | 60.32062 | 24.95778 | 174 ft | 16 kts | 137° |
| 2026-04-24 15:50 | 60.31985 | 24.95921 | 172 ft | 11 kts | 137° |
| 2026-04-24 15:51 | 60.31970 | 24.96055 | 169 ft | 10 kts | 59° |
| 2026-04-24 15:51 | 60.32018 | 24.96153 | 168 ft | 9 kts | 49° |
| 2026-04-24 15:51 | 60.32064 | 24.96258 | 168 ft | 11 kts | 47° |
| 2026-04-24 15:51 | 60.32122 | 24.96390 | 168 ft | 13 kts | 47° |
| 2026-04-24 15:52 | 60.32191 | 24.96539 | 168 ft | 16 kts | 47° |
| 2026-04-24 15:52 | 60.32251 | 24.96699 | 167 ft | 9 kts | 85° |
| 2026-04-24 15:52 | 60.32205 | 24.96782 | 166 ft | 9 kts | 151° |
| 2026-04-24 15:52 | 60.32159 | 24.96834 | 166 ft | 7 kts | 150° |
| 2026-04-24 15:53 | 60.32108 | 24.96891 | 167 ft | 10 kts | 151° |
| 2026-04-24 15:53 | 60.32040 | 24.96971 | 166 ft | 13 kts | 150° |
| 2026-04-24 15:53 | 60.31959 | 24.97056 | 166 ft | 9 kts | 153° |
| 2026-04-24 15:53 | 60.31921 | 24.97031 | 167 ft | 5 kts | 237° |
| 2026-04-24 15:54 | 60.31908 | 24.96982 | 167 ft | 0 kts | 241° |
| 2026-04-24 15:54 | 60.31907 | 24.96977 | 167 ft | 1 kts | 242° |
| 2026-04-24 15:54 | 60.31903 | 24.96963 | 167 ft | 0 kts | 242° |